sensor_id;sensor_type;location;lat;lon;timestamp;P1;durP1;ratioP1;P2;durP2;ratioP2
52380;SDS011;38310;52.796;6.942;2023-05-07T00:00:17;21.40;;;17.38;;
52380;SDS011;38310;52.796;6.942;2023-05-07T00:02:44;20.05;;;17.75;;
52380;SDS011;38310;52.796;6.942;2023-05-07T00:05:11;21.58;;;17.67;;
52380;SDS011;38310;52.796;6.942;2023-05-07T00:07:36;20.38;;;18.27;;
52380;SDS011;38310;52.796;6.942;2023-05-07T00:10:03;21.80;;;18.67;;
52380;SDS011;38310;52.796;6.942;2023-05-07T00:12:29;24.63;;;19.65;;
52380;SDS011;38310;52.796;6.942;2023-05-07T00:15:04;23.75;;;19.15;;
52380;SDS011;38310;52.796;6.942;2023-05-07T00:17:30;21.17;;;18.88;;
52380;SDS011;38310;52.796;6.942;2023-05-07T00:19:57;23.77;;;18.67;;
52380;SDS011;38310;52.796;6.942;2023-05-07T00:22:23;24.58;;;19.35;;
52380;SDS011;38310;52.796;6.942;2023-05-07T00:24:49;24.45;;;19.65;;
52380;SDS011;38310;52.796;6.942;2023-05-07T00:27:14;25.52;;;18.92;;
52380;SDS011;38310;52.796;6.942;2023-05-07T00:29:40;22.42;;;18.77;;
52380;SDS011;38310;52.796;6.942;2023-05-07T00:32:06;24.88;;;20.15;;
52380;SDS011;38310;52.796;6.942;2023-05-07T00:34:32;26.25;;;20.60;;
52380;SDS011;38310;52.796;6.942;2023-05-07T00:36:58;22.52;;;19.92;;
52380;SDS011;38310;52.796;6.942;2023-05-07T00:39:24;27.05;;;20.73;;
52380;SDS011;38310;52.796;6.942;2023-05-07T00:41:50;24.88;;;20.13;;
52380;SDS011;38310;52.796;6.942;2023-05-07T00:44:16;24.35;;;20.25;;
52380;SDS011;38310;52.796;6.942;2023-05-07T00:46:43;25.15;;;20.98;;
52380;SDS011;38310;52.796;6.942;2023-05-07T00:49:10;26.20;;;20.95;;
52380;SDS011;38310;52.796;6.942;2023-05-07T00:51:36;28.17;;;21.42;;
52380;SDS011;38310;52.796;6.942;2023-05-07T00:54:02;24.92;;;21.50;;
52380;SDS011;38310;52.796;6.942;2023-05-07T00:56:28;26.15;;;21.80;;
52380;SDS011;38310;52.796;6.942;2023-05-07T00:58:54;26.85;;;22.42;;
52380;SDS011;38310;52.796;6.942;2023-05-07T01:01:20;24.63;;;21.50;;
52380;SDS011;38310;52.796;6.942;2023-05-07T01:03:46;26.30;;;22.00;;
52380;SDS011;38310;52.796;6.942;2023-05-07T01:06:12;25.75;;;20.65;;
52380;SDS011;38310;52.796;6.942;2023-05-07T01:08:41;28.63;;;22.05;;
52380;SDS011;38310;52.796;6.942;2023-05-07T01:11:07;26.80;;;21.27;;
52380;SDS011;38310;52.796;6.942;2023-05-07T01:13:36;28.35;;;21.60;;
52380;SDS011;38310;52.796;6.942;2023-05-07T01:16:03;30.17;;;22.10;;
52380;SDS011;38310;52.796;6.942;2023-05-07T01:18:29;29.45;;;23.15;;
52380;SDS011;38310;52.796;6.942;2023-05-07T01:20:56;29.92;;;23.48;;
52380;SDS011;38310;52.796;6.942;2023-05-07T01:23:24;28.23;;;22.38;;
52380;SDS011;38310;52.796;6.942;2023-05-07T01:25:52;31.98;;;23.85;;
52380;SDS011;38310;52.796;6.942;2023-05-07T01:28:18;31.25;;;24.58;;
52380;SDS011;38310;52.796;6.942;2023-05-07T01:30:44;30.30;;;23.95;;
52380;SDS011;38310;52.796;6.942;2023-05-07T01:33:15;36.05;;;24.77;;
52380;SDS011;38310;52.796;6.942;2023-05-07T01:35:47;31.70;;;25.38;;
52380;SDS011;38310;52.796;6.942;2023-05-07T01:38:16;31.95;;;25.08;;
52380;SDS011;38310;52.796;6.942;2023-05-07T01:40:43;32.67;;;25.83;;
52380;SDS011;38310;52.796;6.942;2023-05-07T01:43:09;35.08;;;25.95;;
52380;SDS011;38310;52.796;6.942;2023-05-07T01:45:35;32.22;;;26.27;;
52380;SDS011;38310;52.796;6.942;2023-05-07T01:48:05;37.97;;;27.05;;
52380;SDS011;38310;52.796;6.942;2023-05-07T01:50:33;30.92;;;25.08;;
52380;SDS011;38310;52.796;6.942;2023-05-07T01:53:01;32.80;;;25.38;;
52380;SDS011;38310;52.796;6.942;2023-05-07T01:55:27;32.40;;;26.33;;
52380;SDS011;38310;52.796;6.942;2023-05-07T01:57:53;36.30;;;27.95;;
52380;SDS011;38310;52.796;6.942;2023-05-07T02:00:19;34.85;;;25.70;;
52380;SDS011;38310;52.796;6.942;2023-05-07T02:02:45;30.92;;;25.00;;
52380;SDS011;38310;52.796;6.942;2023-05-07T02:05:10;32.17;;;25.42;;
52380;SDS011;38310;52.796;6.942;2023-05-07T02:07:36;34.70;;;26.27;;
52380;SDS011;38310;52.796;6.942;2023-05-07T02:10:02;34.25;;;27.23;;
52380;SDS011;38310;52.796;6.942;2023-05-07T02:12:28;35.85;;;27.83;;
52380;SDS011;38310;52.796;6.942;2023-05-07T02:14:53;36.25;;;28.05;;
52380;SDS011;38310;52.796;6.942;2023-05-07T02:17:19;36.97;;;26.80;;
52380;SDS011;38310;52.796;6.942;2023-05-07T02:19:45;36.75;;;28.80;;
52380;SDS011;38310;52.796;6.942;2023-05-07T02:22:10;38.90;;;29.23;;
52380;SDS011;38310;52.796;6.942;2023-05-07T02:24:36;36.67;;;30.70;;
52380;SDS011;38310;52.796;6.942;2023-05-07T02:27:02;41.17;;;31.52;;
52380;SDS011;38310;52.796;6.942;2023-05-07T02:29:28;39.70;;;30.77;;
52380;SDS011;38310;52.796;6.942;2023-05-07T02:31:54;41.28;;;31.92;;
52380;SDS011;38310;52.796;6.942;2023-05-07T02:34:20;42.92;;;31.85;;
52380;SDS011;38310;52.796;6.942;2023-05-07T02:36:46;43.30;;;32.17;;
52380;SDS011;38310;52.796;6.942;2023-05-07T02:39:12;45.33;;;33.38;;
52380;SDS011;38310;52.796;6.942;2023-05-07T02:41:38;44.53;;;32.92;;
52380;SDS011;38310;52.796;6.942;2023-05-07T02:44:04;49.88;;;33.90;;
52380;SDS011;38310;52.796;6.942;2023-05-07T02:46:30;43.67;;;33.22;;
52380;SDS011;38310;52.796;6.942;2023-05-07T02:48:56;41.90;;;32.75;;
52380;SDS011;38310;52.796;6.942;2023-05-07T02:51:22;48.78;;;35.65;;
52380;SDS011;38310;52.796;6.942;2023-05-07T02:53:48;46.10;;;34.80;;
52380;SDS011;38310;52.796;6.942;2023-05-07T02:56:14;44.35;;;33.92;;
52380;SDS011;38310;52.796;6.942;2023-05-07T02:58:40;47.63;;;33.60;;
52380;SDS011;38310;52.796;6.942;2023-05-07T03:01:07;47.88;;;33.40;;
52380;SDS011;38310;52.796;6.942;2023-05-07T03:03:34;42.63;;;32.55;;
52380;SDS011;38310;52.796;6.942;2023-05-07T03:06:00;46.90;;;34.53;;
52380;SDS011;38310;52.796;6.942;2023-05-07T03:08:26;47.95;;;34.92;;
52380;SDS011;38310;52.796;6.942;2023-05-07T03:10:51;47.30;;;35.80;;
52380;SDS011;38310;52.796;6.942;2023-05-07T03:13:17;45.17;;;33.90;;
52380;SDS011;38310;52.796;6.942;2023-05-07T03:15:43;45.42;;;34.25;;
52380;SDS011;38310;52.796;6.942;2023-05-07T03:18:09;48.40;;;35.25;;
52380;SDS011;38310;52.796;6.942;2023-05-07T03:20:35;44.97;;;33.50;;
52380;SDS011;38310;52.796;6.942;2023-05-07T03:23:01;48.63;;;34.00;;
52380;SDS011;38310;52.796;6.942;2023-05-07T03:25:27;47.42;;;32.70;;
52380;SDS011;38310;52.796;6.942;2023-05-07T03:27:55;44.40;;;33.70;;
52380;SDS011;38310;52.796;6.942;2023-05-07T03:30:21;40.53;;;31.92;;
52380;SDS011;38310;52.796;6.942;2023-05-07T03:32:46;45.75;;;34.90;;
52380;SDS011;38310;52.796;6.942;2023-05-07T03:35:12;48.85;;;33.08;;
52380;SDS011;38310;52.796;6.942;2023-05-07T03:37:38;46.95;;;34.35;;
52380;SDS011;38310;52.796;6.942;2023-05-07T03:40:04;44.28;;;34.17;;
52380;SDS011;38310;52.796;6.942;2023-05-07T03:42:31;46.40;;;34.67;;
52380;SDS011;38310;52.796;6.942;2023-05-07T03:44:57;44.55;;;33.88;;
52380;SDS011;38310;52.796;6.942;2023-05-07T03:47:22;46.38;;;32.70;;
52380;SDS011;38310;52.796;6.942;2023-05-07T03:49:48;46.33;;;34.33;;
52380;SDS011;38310;52.796;6.942;2023-05-07T03:52:15;41.45;;;32.63;;
52380;SDS011;38310;52.796;6.942;2023-05-07T03:54:41;41.22;;;32.15;;
52380;SDS011;38310;52.796;6.942;2023-05-07T03:57:07;36.35;;;29.60;;
52380;SDS011;38310;52.796;6.942;2023-05-07T03:59:32;39.08;;;31.85;;
52380;SDS011;38310;52.796;6.942;2023-05-07T04:01:58;36.72;;;29.33;;
52380;SDS011;38310;52.796;6.942;2023-05-07T04:04:24;44.17;;;32.05;;
52380;SDS011;38310;52.796;6.942;2023-05-07T04:06:49;39.20;;;30.27;;
52380;SDS011;38310;52.796;6.942;2023-05-07T04:09:15;35.70;;;30.27;;
52380;SDS011;38310;52.796;6.942;2023-05-07T04:11:41;39.40;;;30.70;;
52380;SDS011;38310;52.796;6.942;2023-05-07T04:14:06;38.60;;;30.23;;
52380;SDS011;38310;52.796;6.942;2023-05-07T04:16:32;35.60;;;29.15;;
52380;SDS011;38310;52.796;6.942;2023-05-07T04:19:00;39.90;;;28.90;;
52380;SDS011;38310;52.796;6.942;2023-05-07T04:21:25;36.58;;;28.17;;
52380;SDS011;38310;52.796;6.942;2023-05-07T04:23:52;37.15;;;27.85;;
52380;SDS011;38310;52.796;6.942;2023-05-07T04:26:17;35.97;;;27.88;;
52380;SDS011;38310;52.796;6.942;2023-05-07T04:28:43;36.33;;;27.92;;
52380;SDS011;38310;52.796;6.942;2023-05-07T04:31:09;35.20;;;28.02;;
52380;SDS011;38310;52.796;6.942;2023-05-07T04:33:34;35.85;;;28.90;;
52380;SDS011;38310;52.796;6.942;2023-05-07T04:36:03;37.45;;;29.08;;
52380;SDS011;38310;52.796;6.942;2023-05-07T04:38:30;35.67;;;27.55;;
52380;SDS011;38310;52.796;6.942;2023-05-07T04:40:56;34.90;;;27.95;;
52380;SDS011;38310;52.796;6.942;2023-05-07T04:43:23;35.88;;;29.17;;
52380;SDS011;38310;52.796;6.942;2023-05-07T04:45:50;35.83;;;27.40;;
52380;SDS011;38310;52.796;6.942;2023-05-07T04:48:16;35.10;;;28.15;;
52380;SDS011;38310;52.796;6.942;2023-05-07T04:50:44;38.47;;;27.63;;
52380;SDS011;38310;52.796;6.942;2023-05-07T04:53:12;36.40;;;28.23;;
52380;SDS011;38310;52.796;6.942;2023-05-07T04:55:38;34.13;;;27.13;;
52380;SDS011;38310;52.796;6.942;2023-05-07T04:58:03;34.95;;;27.65;;
52380;SDS011;38310;52.796;6.942;2023-05-07T05:00:30;37.55;;;28.88;;
52380;SDS011;38310;52.796;6.942;2023-05-07T05:02:55;34.65;;;27.65;;
52380;SDS011;38310;52.796;6.942;2023-05-07T05:05:21;34.70;;;27.85;;
52380;SDS011;38310;52.796;6.942;2023-05-07T05:07:47;36.63;;;28.25;;
52380;SDS011;38310;52.796;6.942;2023-05-07T05:10:12;33.22;;;26.98;;
52380;SDS011;38310;52.796;6.942;2023-05-07T05:12:38;37.05;;;28.80;;
52380;SDS011;38310;52.796;6.942;2023-05-07T05:15:04;35.65;;;26.95;;
52380;SDS011;38310;52.796;6.942;2023-05-07T05:17:31;35.35;;;27.10;;
52380;SDS011;38310;52.796;6.942;2023-05-07T05:19:56;36.05;;;28.10;;
52380;SDS011;38310;52.796;6.942;2023-05-07T05:22:22;36.50;;;28.77;;
52380;SDS011;38310;52.796;6.942;2023-05-07T05:24:48;36.65;;;28.83;;
52380;SDS011;38310;52.796;6.942;2023-05-07T05:27:13;35.53;;;28.13;;
52380;SDS011;38310;52.796;6.942;2023-05-07T05:29:39;33.92;;;27.77;;
52380;SDS011;38310;52.796;6.942;2023-05-07T05:32:04;37.28;;;28.50;;
52380;SDS011;38310;52.796;6.942;2023-05-07T05:34:30;36.38;;;27.33;;
52380;SDS011;38310;52.796;6.942;2023-05-07T05:36:58;35.42;;;28.02;;
52380;SDS011;38310;52.796;6.942;2023-05-07T05:39:24;36.08;;;27.35;;
52380;SDS011;38310;52.796;6.942;2023-05-07T05:41:50;35.72;;;28.13;;
52380;SDS011;38310;52.796;6.942;2023-05-07T05:44:15;38.10;;;27.17;;
52380;SDS011;38310;52.796;6.942;2023-05-07T05:46:41;34.90;;;27.73;;
52380;SDS011;38310;52.796;6.942;2023-05-07T05:49:07;34.88;;;28.58;;
52380;SDS011;38310;52.796;6.942;2023-05-07T05:51:33;38.60;;;29.30;;
52380;SDS011;38310;52.796;6.942;2023-05-07T05:53:59;34.75;;;28.50;;
52380;SDS011;38310;52.796;6.942;2023-05-07T05:56:24;41.28;;;30.92;;
52380;SDS011;38310;52.796;6.942;2023-05-07T05:58:51;36.05;;;28.65;;
52380;SDS011;38310;52.796;6.942;2023-05-07T06:01:17;38.33;;;29.17;;
52380;SDS011;38310;52.796;6.942;2023-05-07T06:03:43;36.22;;;27.08;;
52380;SDS011;38310;52.796;6.942;2023-05-07T06:06:09;35.20;;;26.70;;
52380;SDS011;38310;52.796;6.942;2023-05-07T06:08:35;36.42;;;27.90;;
52380;SDS011;38310;52.796;6.942;2023-05-07T06:11:01;35.97;;;28.75;;
52380;SDS011;38310;52.796;6.942;2023-05-07T06:13:28;36.53;;;28.30;;
52380;SDS011;38310;52.796;6.942;2023-05-07T06:15:53;37.42;;;28.02;;
52380;SDS011;38310;52.796;6.942;2023-05-07T06:18:19;35.00;;;27.10;;
52380;SDS011;38310;52.796;6.942;2023-05-07T06:20:45;36.58;;;27.52;;
52380;SDS011;38310;52.796;6.942;2023-05-07T06:23:10;38.10;;;28.67;;
52380;SDS011;38310;52.796;6.942;2023-05-07T06:25:36;35.10;;;27.42;;
52380;SDS011;38310;52.796;6.942;2023-05-07T06:28:02;37.42;;;28.88;;
52380;SDS011;38310;52.796;6.942;2023-05-07T06:30:27;40.20;;;30.80;;
52380;SDS011;38310;52.796;6.942;2023-05-07T06:32:53;37.63;;;28.45;;
52380;SDS011;38310;52.796;6.942;2023-05-07T06:35:19;38.97;;;29.90;;
52380;SDS011;38310;52.796;6.942;2023-05-07T06:37:45;38.05;;;28.60;;
52380;SDS011;38310;52.796;6.942;2023-05-07T06:40:10;40.53;;;30.55;;
52380;SDS011;38310;52.796;6.942;2023-05-07T06:42:36;37.30;;;28.17;;
52380;SDS011;38310;52.796;6.942;2023-05-07T06:45:02;40.53;;;30.15;;
52380;SDS011;38310;52.796;6.942;2023-05-07T06:47:29;38.45;;;27.88;;
52380;SDS011;38310;52.796;6.942;2023-05-07T06:49:55;39.88;;;29.50;;
52380;SDS011;38310;52.796;6.942;2023-05-07T06:52:20;37.97;;;27.83;;
52380;SDS011;38310;52.796;6.942;2023-05-07T06:54:46;39.17;;;28.63;;
52380;SDS011;38310;52.796;6.942;2023-05-07T06:57:12;35.97;;;27.65;;
52380;SDS011;38310;52.796;6.942;2023-05-07T06:59:38;37.33;;;28.55;;
52380;SDS011;38310;52.796;6.942;2023-05-07T07:02:03;37.88;;;28.15;;
52380;SDS011;38310;52.796;6.942;2023-05-07T07:04:29;36.85;;;27.63;;
52380;SDS011;38310;52.796;6.942;2023-05-07T07:06:55;38.35;;;28.70;;
52380;SDS011;38310;52.796;6.942;2023-05-07T07:09:21;39.70;;;28.35;;
52380;SDS011;38310;52.796;6.942;2023-05-07T07:11:47;38.28;;;28.38;;
52380;SDS011;38310;52.796;6.942;2023-05-07T07:14:13;35.08;;;27.75;;
52380;SDS011;38310;52.796;6.942;2023-05-07T07:16:39;37.50;;;27.55;;
52380;SDS011;38310;52.796;6.942;2023-05-07T07:19:05;39.15;;;29.80;;
52380;SDS011;38310;52.796;6.942;2023-05-07T07:21:31;37.28;;;28.10;;
52380;SDS011;38310;52.796;6.942;2023-05-07T07:23:57;38.75;;;29.50;;
52380;SDS011;38310;52.796;6.942;2023-05-07T07:26:22;36.65;;;28.75;;
52380;SDS011;38310;52.796;6.942;2023-05-07T07:28:48;41.42;;;29.10;;
52380;SDS011;38310;52.796;6.942;2023-05-07T07:31:14;39.92;;;29.13;;
52380;SDS011;38310;52.796;6.942;2023-05-07T07:33:40;38.67;;;29.23;;
52380;SDS011;38310;52.796;6.942;2023-05-07T07:36:06;41.25;;;29.95;;
52380;SDS011;38310;52.796;6.942;2023-05-07T07:38:32;37.90;;;28.15;;
52380;SDS011;38310;52.796;6.942;2023-05-07T07:40:59;39.25;;;27.50;;
52380;SDS011;38310;52.796;6.942;2023-05-07T07:43:25;37.75;;;28.70;;
52380;SDS011;38310;52.796;6.942;2023-05-07T07:45:51;38.17;;;28.88;;
52380;SDS011;38310;52.796;6.942;2023-05-07T07:48:16;36.58;;;27.90;;
52380;SDS011;38310;52.796;6.942;2023-05-07T07:50:42;41.40;;;29.27;;
52380;SDS011;38310;52.796;6.942;2023-05-07T07:53:08;36.20;;;27.75;;
52380;SDS011;38310;52.796;6.942;2023-05-07T07:55:37;34.40;;;26.77;;
52380;SDS011;38310;52.796;6.942;2023-05-07T07:58:05;35.17;;;27.05;;
52380;SDS011;38310;52.796;6.942;2023-05-07T08:00:30;34.53;;;26.58;;
52380;SDS011;38310;52.796;6.942;2023-05-07T08:02:56;35.88;;;27.42;;
52380;SDS011;38310;52.796;6.942;2023-05-07T08:05:22;31.70;;;26.77;;
52380;SDS011;38310;52.796;6.942;2023-05-07T08:07:48;35.83;;;27.38;;
52380;SDS011;38310;52.796;6.942;2023-05-07T08:10:18;36.47;;;27.33;;
52380;SDS011;38310;52.796;6.942;2023-05-07T08:12:47;32.28;;;25.75;;
52380;SDS011;38310;52.796;6.942;2023-05-07T08:15:14;33.53;;;24.90;;
52380;SDS011;38310;52.796;6.942;2023-05-07T08:17:40;35.22;;;25.75;;
52380;SDS011;38310;52.796;6.942;2023-05-07T08:20:06;30.58;;;24.85;;
52380;SDS011;38310;52.796;6.942;2023-05-07T08:22:32;33.70;;;25.23;;
52380;SDS011;38310;52.796;6.942;2023-05-07T08:25:01;31.90;;;24.77;;
52380;SDS011;38310;52.796;6.942;2023-05-07T08:27:28;33.35;;;24.98;;
52380;SDS011;38310;52.796;6.942;2023-05-07T08:29:53;34.25;;;25.33;;
52380;SDS011;38310;52.796;6.942;2023-05-07T08:32:20;33.13;;;25.25;;
52380;SDS011;38310;52.796;6.942;2023-05-07T08:34:46;30.80;;;24.55;;
52380;SDS011;38310;52.796;6.942;2023-05-07T08:37:13;32.20;;;24.85;;
52380;SDS011;38310;52.796;6.942;2023-05-07T08:39:38;30.77;;;23.65;;
52380;SDS011;38310;52.796;6.942;2023-05-07T08:42:04;32.53;;;25.48;;
52380;SDS011;38310;52.796;6.942;2023-05-07T08:44:35;31.50;;;23.58;;
52380;SDS011;38310;52.796;6.942;2023-05-07T08:47:01;30.52;;;23.20;;
52380;SDS011;38310;52.796;6.942;2023-05-07T08:49:27;31.50;;;23.75;;
52380;SDS011;38310;52.796;6.942;2023-05-07T08:51:53;31.67;;;23.88;;
52380;SDS011;38310;52.796;6.942;2023-05-07T08:54:21;31.17;;;22.90;;
52380;SDS011;38310;52.796;6.942;2023-05-07T08:56:47;32.25;;;22.90;;
52380;SDS011;38310;52.796;6.942;2023-05-07T08:59:13;28.23;;;21.95;;
52380;SDS011;38310;52.796;6.942;2023-05-07T09:01:39;28.80;;;21.80;;
52380;SDS011;38310;52.796;6.942;2023-05-07T09:04:04;29.15;;;21.70;;
52380;SDS011;38310;52.796;6.942;2023-05-07T09:06:32;29.98;;;22.13;;
52380;SDS011;38310;52.796;6.942;2023-05-07T09:08:58;25.98;;;20.73;;
52380;SDS011;38310;52.796;6.942;2023-05-07T09:11:26;29.42;;;22.15;;
52380;SDS011;38310;52.796;6.942;2023-05-07T09:13:55;25.40;;;20.13;;
52380;SDS011;38310;52.796;6.942;2023-05-07T09:16:28;28.45;;;20.95;;
52380;SDS011;38310;52.796;6.942;2023-05-07T09:18:57;28.55;;;20.35;;
52380;SDS011;38310;52.796;6.942;2023-05-07T09:21:25;27.10;;;21.02;;
52380;SDS011;38310;52.796;6.942;2023-05-07T09:23:54;25.92;;;20.10;;
52380;SDS011;38310;52.796;6.942;2023-05-07T09:26:21;29.25;;;20.25;;
52380;SDS011;38310;52.796;6.942;2023-05-07T09:28:47;27.13;;;19.58;;
52380;SDS011;38310;52.796;6.942;2023-05-07T09:31:13;25.10;;;18.48;;
52380;SDS011;38310;52.796;6.942;2023-05-07T09:33:39;24.38;;;18.58;;
52380;SDS011;38310;52.796;6.942;2023-05-07T09:36:06;24.25;;;17.15;;
52380;SDS011;38310;52.796;6.942;2023-05-07T09:38:33;23.35;;;17.17;;
52380;SDS011;38310;52.796;6.942;2023-05-07T09:41:04;23.35;;;17.27;;
52380;SDS011;38310;52.796;6.942;2023-05-07T09:43:33;24.58;;;18.45;;
52380;SDS011;38310;52.796;6.942;2023-05-07T09:46:02;23.23;;;17.98;;
52380;SDS011;38310;52.796;6.942;2023-05-07T09:48:49;24.08;;;17.70;;
52380;SDS011;38310;52.796;6.942;2023-05-07T09:54:18;21.27;;;16.50;;
52380;SDS011;38310;52.796;6.942;2023-05-07T09:56:44;27.80;;;18.15;;
52380;SDS011;38310;52.796;6.942;2023-05-07T09:59:14;22.70;;;17.30;;
52380;SDS011;38310;52.796;6.942;2023-05-07T10:01:41;23.52;;;17.95;;
52380;SDS011;38310;52.796;6.942;2023-05-07T10:04:08;22.55;;;16.60;;
52380;SDS011;38310;52.796;6.942;2023-05-07T10:06:35;23.23;;;17.98;;
52380;SDS011;38310;52.796;6.942;2023-05-07T10:09:01;21.85;;;17.35;;
52380;SDS011;38310;52.796;6.942;2023-05-07T10:11:28;19.75;;;15.15;;
52380;SDS011;38310;52.796;6.942;2023-05-07T10:13:53;24.10;;;17.45;;
52380;SDS011;38310;52.796;6.942;2023-05-07T10:16:20;22.38;;;17.27;;
52380;SDS011;38310;52.796;6.942;2023-05-07T10:18:47;20.20;;;15.52;;
52380;SDS011;38310;52.796;6.942;2023-05-07T10:21:18;21.38;;;16.05;;
52380;SDS011;38310;52.796;6.942;2023-05-07T10:23:45;21.67;;;16.75;;
52380;SDS011;38310;52.796;6.942;2023-05-07T10:26:15;20.20;;;16.10;;
52380;SDS011;38310;52.796;6.942;2023-05-07T10:28:45;21.67;;;17.52;;
52380;SDS011;38310;52.796;6.942;2023-05-07T10:31:28;20.15;;;16.23;;
52380;SDS011;38310;52.796;6.942;2023-05-07T10:34:19;20.48;;;16.15;;
52380;SDS011;38310;52.796;6.942;2023-05-07T10:36:48;22.15;;;16.48;;
52380;SDS011;38310;52.796;6.942;2023-05-07T10:39:15;22.20;;;16.20;;
52380;SDS011;38310;52.796;6.942;2023-05-07T10:41:41;20.52;;;16.77;;
52380;SDS011;38310;52.796;6.942;2023-05-07T10:44:07;20.27;;;16.13;;
52380;SDS011;38310;52.796;6.942;2023-05-07T10:46:32;22.95;;;16.60;;
52380;SDS011;38310;52.796;6.942;2023-05-07T10:51:26;21.50;;;17.65;;
52380;SDS011;38310;52.796;6.942;2023-05-07T10:54:34;20.05;;;16.35;;
52380;SDS011;38310;52.796;6.942;2023-05-07T10:56:44;21.27;;;16.98;;
52380;SDS011;38310;52.796;6.942;2023-05-07T11:01:59;20.50;;;16.40;;
52380;SDS011;38310;52.796;6.942;2023-05-07T11:04:29;22.48;;;18.08;;
52380;SDS011;38310;52.796;6.942;2023-05-07T11:12:16;19.23;;;16.45;;
52380;SDS011;38310;52.796;6.942;2023-05-07T11:17:09;20.00;;;15.98;;
52380;SDS011;38310;52.796;6.942;2023-05-07T11:19:52;20.15;;;16.10;;
52380;SDS011;38310;52.796;6.942;2023-05-07T11:25:04;18.77;;;15.73;;
52380;SDS011;38310;52.796;6.942;2023-05-07T11:29:56;18.02;;;15.57;;
52380;SDS011;38310;52.796;6.942;2023-05-07T11:32:26;17.65;;;15.20;;
52380;SDS011;38310;52.796;6.942;2023-05-07T11:34:53;18.83;;;15.95;;
52380;SDS011;38310;52.796;6.942;2023-05-07T11:37:20;17.42;;;14.93;;
52380;SDS011;38310;52.796;6.942;2023-05-07T11:39:46;20.30;;;15.85;;
52380;SDS011;38310;52.796;6.942;2023-05-07T11:42:25;19.63;;;16.27;;
52380;SDS011;38310;52.796;6.942;2023-05-07T11:44:55;18.77;;;16.02;;
52380;SDS011;38310;52.796;6.942;2023-05-07T11:47:21;18.15;;;14.80;;
52380;SDS011;38310;52.796;6.942;2023-05-07T11:49:47;18.58;;;15.18;;
52380;SDS011;38310;52.796;6.942;2023-05-07T11:52:14;18.83;;;15.77;;
52380;SDS011;38310;52.796;6.942;2023-05-07T11:54:41;19.75;;;15.35;;
52380;SDS011;38310;52.796;6.942;2023-05-07T11:57:06;19.75;;;16.80;;
52380;SDS011;38310;52.796;6.942;2023-05-07T11:59:39;18.50;;;14.25;;
52380;SDS011;38310;52.796;6.942;2023-05-07T12:02:06;16.42;;;14.07;;
52380;SDS011;38310;52.796;6.942;2023-05-07T12:04:33;18.70;;;14.77;;
52380;SDS011;38310;52.796;6.942;2023-05-07T12:06:58;17.83;;;14.55;;
52380;SDS011;38310;52.796;6.942;2023-05-07T12:09:24;16.83;;;14.18;;
52380;SDS011;38310;52.796;6.942;2023-05-07T12:11:51;17.08;;;14.43;;
52380;SDS011;38310;52.796;6.942;2023-05-07T12:14:17;17.05;;;14.48;;
52380;SDS011;38310;52.796;6.942;2023-05-07T12:16:43;15.25;;;13.63;;
52380;SDS011;38310;52.796;6.942;2023-05-07T12:19:10;15.48;;;13.60;;
52380;SDS011;38310;52.796;6.942;2023-05-07T12:21:40;17.33;;;15.32;;
52380;SDS011;38310;52.796;6.942;2023-05-07T12:24:06;17.27;;;15.38;;
52380;SDS011;38310;52.796;6.942;2023-05-07T12:26:36;17.33;;;15.38;;
52380;SDS011;38310;52.796;6.942;2023-05-07T12:29:05;17.42;;;15.52;;
52380;SDS011;38310;52.796;6.942;2023-05-07T12:31:31;17.33;;;14.70;;
52380;SDS011;38310;52.796;6.942;2023-05-07T12:33:57;16.75;;;14.55;;
52380;SDS011;38310;52.796;6.942;2023-05-07T12:36:23;15.63;;;14.00;;
52380;SDS011;38310;52.796;6.942;2023-05-07T12:38:49;17.27;;;14.63;;
52380;SDS011;38310;52.796;6.942;2023-05-07T12:41:15;14.43;;;12.93;;
52380;SDS011;38310;52.796;6.942;2023-05-07T12:43:43;17.75;;;14.07;;
52380;SDS011;38310;52.796;6.942;2023-05-07T12:46:10;17.30;;;14.90;;
52380;SDS011;38310;52.796;6.942;2023-05-07T12:48:43;16.52;;;14.25;;
52380;SDS011;38310;52.796;6.942;2023-05-07T12:51:10;15.23;;;13.40;;
52380;SDS011;38310;52.796;6.942;2023-05-07T12:53:41;14.40;;;12.85;;
52380;SDS011;38310;52.796;6.942;2023-05-07T12:56:07;15.05;;;12.95;;
52380;SDS011;38310;52.796;6.942;2023-05-07T12:58:34;14.05;;;12.55;;
52380;SDS011;38310;52.796;6.942;2023-05-07T13:01:04;14.80;;;12.63;;
52380;SDS011;38310;52.796;6.942;2023-05-07T13:03:33;16.83;;;13.40;;
52380;SDS011;38310;52.796;6.942;2023-05-07T13:06:06;15.27;;;13.45;;
52380;SDS011;38310;52.796;6.942;2023-05-07T13:08:38;15.25;;;13.77;;
52380;SDS011;38310;52.796;6.942;2023-05-07T13:11:06;14.77;;;13.27;;
52380;SDS011;38310;52.796;6.942;2023-05-07T13:13:36;14.63;;;13.23;;
52380;SDS011;38310;52.796;6.942;2023-05-07T13:16:04;14.95;;;13.45;;
52380;SDS011;38310;52.796;6.942;2023-05-07T13:18:31;16.17;;;14.48;;
52380;SDS011;38310;52.796;6.942;2023-05-07T13:20:57;14.48;;;13.02;;
52380;SDS011;38310;52.796;6.942;2023-05-07T13:23:23;15.35;;;13.75;;
52380;SDS011;38310;52.796;6.942;2023-05-07T13:25:49;14.32;;;12.85;;
52380;SDS011;38310;52.796;6.942;2023-05-07T13:28:15;14.38;;;12.88;;
52380;SDS011;38310;52.796;6.942;2023-05-07T13:30:41;15.25;;;13.25;;
52380;SDS011;38310;52.796;6.942;2023-05-07T13:33:08;13.65;;;12.25;;
52380;SDS011;38310;52.796;6.942;2023-05-07T13:35:34;14.27;;;12.85;;
52380;SDS011;38310;52.796;6.942;2023-05-07T13:38:00;14.68;;;13.18;;
52380;SDS011;38310;52.796;6.942;2023-05-07T13:40:26;15.25;;;13.65;;
52380;SDS011;38310;52.796;6.942;2023-05-07T13:42:52;14.98;;;13.48;;
52380;SDS011;38310;52.796;6.942;2023-05-07T13:45:18;18.83;;;13.32;;
52380;SDS011;38310;52.796;6.942;2023-05-07T13:47:45;14.90;;;13.40;;
52380;SDS011;38310;52.796;6.942;2023-05-07T13:50:11;14.07;;;12.68;;
52380;SDS011;38310;52.796;6.942;2023-05-07T13:52:41;13.60;;;12.27;;
52380;SDS011;38310;52.796;6.942;2023-05-07T13:55:08;14.85;;;13.20;;
52380;SDS011;38310;52.796;6.942;2023-05-07T13:57:35;14.55;;;12.55;;
52380;SDS011;38310;52.796;6.942;2023-05-07T14:00:02;14.55;;;13.13;;
52380;SDS011;38310;52.796;6.942;2023-05-07T14:02:30;13.82;;;12.32;;
52380;SDS011;38310;52.796;6.942;2023-05-07T14:04:56;14.73;;;12.57;;
52380;SDS011;38310;52.796;6.942;2023-05-07T14:07:22;13.55;;;12.00;;
52380;SDS011;38310;52.796;6.942;2023-05-07T14:09:48;14.15;;;12.75;;
52380;SDS011;38310;52.796;6.942;2023-05-07T14:12:13;14.75;;;12.18;;
52380;SDS011;38310;52.796;6.942;2023-05-07T14:14:39;13.20;;;11.80;;
52380;SDS011;38310;52.796;6.942;2023-05-07T14:17:05;13.02;;;11.65;;
52380;SDS011;38310;52.796;6.942;2023-05-07T14:19:31;12.52;;;11.20;;
52380;SDS011;38310;52.796;6.942;2023-05-07T14:21:56;11.65;;;10.18;;
52380;SDS011;38310;52.796;6.942;2023-05-07T14:24:23;14.13;;;12.57;;
52380;SDS011;38310;52.796;6.942;2023-05-07T14:26:49;13.90;;;12.07;;
52380;SDS011;38310;52.796;6.942;2023-05-07T14:29:16;12.10;;;10.20;;
52380;SDS011;38310;52.796;6.942;2023-05-07T14:31:44;11.82;;;10.60;;
52380;SDS011;38310;52.796;6.942;2023-05-07T14:34:10;13.13;;;11.30;;
52380;SDS011;38310;52.796;6.942;2023-05-07T14:36:36;13.70;;;12.35;;
52380;SDS011;38310;52.796;6.942;2023-05-07T14:39:03;13.52;;;11.70;;